Historique des stations

Station météo de Aubigny-sur-Nère

Altitude de la station : 197 m







Données météorologiques pour le 30/11/2021
Date
Heure
Températures Humidité Point de rosée Vitesse
du vent
Direction Rafales Windchill Pression Pluviométrie
Cumul
Date
Heure
Températures Humidité Point de rosée Vitesse
du vent
Direction Rafales Windchill Pression Pluviométrie
Cumul
30/11/2021 09:161.1 °C56 %-6.7 °C3 km/hSO16 km/h0.0 1019 hPa0.5 mm
30/11/2021 09:151.1 °C56 %-6.7 °C10 km/hSO23 km/h-1.7 1019 hPa0.51 mm
30/11/2021 09:011.0 °C56 %-7.2 °C5 km/hSO16 km/h0.0 1019 hPa0.5 mm
30/11/2021 09:001.0 °C56 %-7.2 °C10 km/hOSO23 km/h-1.7 1019 hPa0.51 mm
30/11/2021 08:460.9 °C56 %-7.2 °C10 km/hSO13 km/h-1.7 1019 hPa0.5 mm
30/11/2021 08:450.9 °C57 %-6.7 °C5 km/hSO23 km/h0.0 1019 hPa0.51 mm
30/11/2021 08:310.8 °C57 %-6.7 °C8 km/hOSO19 km/h-1.7 1019 hPa0.5 mm
30/11/2021 08:300.9 °C57 %-6.7 °C10 km/hOSO23 km/h-1.7 1019 hPa0.51 mm
30/11/2021 08:160.8 °C57 %-7.2 °C5 km/hSO16 km/h-0.6 1018 hPa0.5 mm
30/11/2021 08:150.7 °C57 %-7.2 °C10 km/hSO19 km/h-2.2 1018 hPa0.51 mm
30/11/2021 08:010.7 °C57 %-7.2 °C6 km/hOSO16 km/h-1.1 1018 hPa0.5 mm
30/11/2021 08:000.7 °C57 %-7.2 °C6 km/hSO19 km/h-1.1 1018 hPa0.51 mm
30/11/2021 07:450.7 °C57 %-7.2 °C6 km/hOSO16 km/h-1.1 1018 hPa0.5 mm
30/11/2021 07:440.7 °C58 %-6.7 °C5 km/hSO19 km/h-0.6 1018 hPa0.51 mm
30/11/2021 07:300.7 °C58 %-6.7 °C6 km/hOSO16 km/h-1.1 1018 hPa0.5 mm
30/11/2021 07:290.7 °C58 %-6.7 °C6 km/hOSO19 km/h-1.1 1018 hPa0.51 mm
30/11/2021 07:150.6 °C58 %-6.7 °C5 km/hOSO16 km/h-0.6 1018 hPa0.5 mm
30/11/2021 07:140.6 °C58 %-6.7 °C6 km/hOSO19 km/h-1.1 1018 hPa0.51 mm
30/11/2021 07:000.6 °C57 %-7.2 °C6 km/hSO14 km/h-1.1 1018 hPa0.5 mm
30/11/2021 06:590.6 °C57 %-7.2 °C6 km/hSO19 km/h-1.1 1018 hPa0.51 mm
30/11/2021 06:450.6 °C57 %-7.2 °C5 km/hSO16 km/h-0.6 1018 hPa0.5 mm
30/11/2021 06:440.6 °C57 %-7.2 °C3 km/hSO19 km/h-0.6 1018 hPa0.51 mm
30/11/2021 06:300.6 °C57 %-7.2 °C5 km/hOSO16 km/h-0.6 1018 hPa0.5 mm
30/11/2021 06:290.6 °C57 %-7.2 °C3 km/hSO19 km/h-0.6 1018 hPa0.51 mm
30/11/2021 06:150.6 °C57 %-7.2 °C5 km/hSO16 km/h-0.6 1018 hPa0.5 mm
30/11/2021 06:140.6 °C57 %-7.2 °C6 km/hOSO19 km/h-1.1 1018 hPa0.51 mm
30/11/2021 06:000.6 °C57 %-7.2 °C10 km/hOSO14 km/h-2.2 1018 hPa0.5 mm
30/11/2021 05:590.6 °C57 %-7.2 °C8 km/hOSO18 km/h-2.2 1018 hPa0.51 mm
30/11/2021 05:450.5 °C57 %-7.2 °C5 km/hSO18 km/h-0.6 1018 hPa0.5 mm
30/11/2021 05:440.6 °C57 %-7.2 °C8 km/hSO18 km/h-2.2 1018 hPa0.51 mm
30/11/2021 05:300.6 °C57 %-7.2 °C6 km/hSO13 km/h-1.1 1017 hPa0.5 mm
30/11/2021 05:290.6 °C57 %-7.2 °C6 km/hSO18 km/h-1.1 1017 hPa0.51 mm
30/11/2021 05:150.7 °C57 %-7.2 °C5 km/hOSO14 km/h-0.6 1017 hPa0.5 mm
30/11/2021 05:140.7 °C57 %-7.2 °C8 km/hSO18 km/h-2.2 1017 hPa0.51 mm
30/11/2021 05:000.8 °C58 %-6.7 °C10 km/hOSO13 km/h-2.2 1017 hPa0.5 mm
30/11/2021 04:590.8 °C58 %-6.7 °C8 km/hOSO18 km/h-2.2 1018 hPa0.51 mm
30/11/2021 04:450.6 °C58 %-6.7 °C6 km/hOSO14 km/h-1.1 1018 hPa0.5 mm
30/11/2021 04:440.6 °C58 %-6.7 °C5 km/hS14 km/h-0.6 1018 hPa0.51 mm
30/11/2021 04:300.5 °C58 %-7.2 °C6 km/hSSO13 km/h-1.1 1018 hPa0.5 mm
30/11/2021 04:290.5 °C58 %-7.2 °C8 km/hSO14 km/h-2.2 1018 hPa0.51 mm
30/11/2021 04:150.4 °C58 %-7.2 °C6 km/hOSO11 km/h-1.1 1018 hPa0.5 mm
30/11/2021 04:140.5 °C58 %-7.2 °C5 km/hSO14 km/h-0.6 1018 hPa0.51 mm
30/11/2021 04:000.5 °C58 %-7.2 °C11 km/hOSO13 km/h-2.8 1018 hPa0.5 mm
30/11/2021 03:590.6 °C58 %-6.7 °C3 km/hOSO14 km/h-0.6 1018 hPa0.51 mm
30/11/2021 03:450.6 °C58 %-6.7 °C5 km/hOSO14 km/h-0.6 1018 hPa0.5 mm
30/11/2021 03:440.6 °C58 %-6.7 °C5 km/hSO11 km/h-0.6 1018 hPa0.51 mm
30/11/2021 03:310.5 °C58 %-7.2 °C8 km/hOSO11 km/h-2.2 1018 hPa0.5 mm
30/11/2021 03:290.5 °C58 %-7.2 °C6 km/hOSO11 km/h-1.1 1018 hPa0.51 mm
30/11/2021 03:150.3 °C58 %-7.2 °C6 km/hSO8 km/h-1.1 1018 hPa0.5 mm
30/11/2021 03:140.3 °C58 %-7.2 °C6 km/hOSO11 km/h-1.1 1018 hPa0.51 mm
30/11/2021 03:000.3 °C58 %-7.2 °C5 km/hOSO8 km/h-0.6 1018 hPa0.5 mm
30/11/2021 02:590.3 °C58 %-7.2 °C3 km/hSO11 km/h-0.6 1018 hPa0.51 mm
30/11/2021 02:450.3 °C58 %-7.2 °C5 km/hOSO11 km/h-0.6 1018 hPa0.5 mm
30/11/2021 02:440.3 °C58 %-7.2 °C3 km/hOSO11 km/h-0.6 1018 hPa0.51 mm
30/11/2021 02:300.2 °C58 %-7.2 °C3 km/hSO6 km/h-1.1 1018 hPa0.5 mm
30/11/2021 02:290.2 °C58 %-7.2 °C2 km/hSO11 km/h-0.6 1018 hPa0.51 mm
30/11/2021 02:150.3 °C58 %-7.2 °C3 km/hSO6 km/h-0.6 1018 hPa0.5 mm
30/11/2021 02:140.3 °C58 %-7.2 °C3 km/hSO11 km/h-0.6 1018 hPa0.51 mm
30/11/2021 02:000.3 °C58 %-7.2 °C3 km/hSO5 km/h-0.6 1018 hPa0.5 mm
30/11/2021 01:590.3 °C58 %-7.2 °C3 km/hSO11 km/h-0.6 1018 hPa0.51 mm
30/11/2021 01:460.2 °C57 %-7.2 °C2 km/hSO5 km/h-0.6 1018 hPa0.5 mm
30/11/2021 01:440.2 °C57 %-7.2 °C3 km/hSO11 km/h-1.1 1018 hPa0.51 mm
30/11/2021 01:310.3 °C57 %-7.2 °C2 km/hSO6 km/h0.0 1017 hPa0.3 mm
30/11/2021 01:290.3 °C57 %-7.2 °C3 km/hSSO11 km/h-0.6 1018 hPa0.25 mm
30/11/2021 01:160.3 °C57 %-7.2 °C3 km/hSSO6 km/h-0.6 1017 hPa0.3 mm
30/11/2021 01:140.3 °C57 %-7.2 °C2 km/hSO8 km/h0.0 1017 hPa0.25 mm
30/11/2021 01:000.3 °C57 %-7.2 °C2 km/hSO6 km/h0.0 1017 hPa0.3 mm
30/11/2021 00:590.4 °C57 %-7.2 °C3 km/hSO8 km/h-0.6 1017 hPa0.25 mm
30/11/2021 00:460.4 °C57 %-7.2 °C2 km/hSSO6 km/h0.0 1017 hPa0.3 mm
30/11/2021 00:440.4 °C57 %-7.2 °C3 km/hSSO8 km/h-0.6 1017 hPa0.25 mm
30/11/2021 00:310.4 °C57 %-7.2 °C2 km/hSO5 km/h0.0 1017 hPa0.3 mm
30/11/2021 00:290.4 °C57 %-7.2 °C2 km/hSO8 km/h0.0 1017 hPa0.25 mm
30/11/2021 00:160.6 °C57 %-7.2 °C-SO8 km/h0.6 1018 hPa-
30/11/2021 00:140.6 °C57 %-7.2 °C3 km/hSO8 km/h-0.6 1017 hPa-
30/11/2021 00:010.6 °C57 %-7.2 °C3 km/hSO6 km/h-0.6 1018 hPa-
30/11/2021 00:000.5 °C56 %-7.2 °C2 km/hSSO2 km/h0.0 1018 hPa-


Minima :

Température : 0.2 °C
Humidité : 56 %
Point de rosée : -7.2 °C
Vent moyen : 2 km/h
Windchill : -2.8
Pression atm. : 1017 hPa
Maxima :

Température : 1.1 °C
Humidité : 58 %
Point de rosée : -6.7 °C
Vent moyen : 11 km/h
Windchill : 0.6
Pression atm. : 1019 hPa
Rafales max : 23 km/h
Cumul de pluie sur 24H : 0.51 mm

Aubigny-sur-Nère est une commune du département Cher (18).
La station météorologique du réseau de l'association la plus proche de Aubigny-sur-Nère est celle de Salbris



Icône Facebook Association Météo Centre Icône Twitter Association Météo Centre Icône Chaîne Youtube Association Météo Centre Icône contact Association Météo Centre Icône Insta Association Météo Centre